Time;durP1;ratioP1;P1;durP2;ratioP2;P2;SDS_P1;SDS_P2;PMS_P1;PMS_P2;Temp;Humidity;BMP_temperature;BMP_pressure;BME280_temperature;BME280_humidity;BME280_pressure;Samples;Min_cycle;Max_cycle;Signal;HPM_P1;HPM_P2
2022/02/28 00:02:18;;;;;;;13.23;8.03;;;3.80;99.90;;;;;;4867396;29;20441;-81
2022/02/28 00:05:03;;;;;;;10.67;8.40;;;3.80;99.90;;;;;;4866296;29;20418;-81
2022/02/28 00:07:49;;;;;;;12.03;6.60;;;3.70;99.90;;;;;;4867166;29;20369;-81
2022/02/28 00:10:33;;;;;;;13.00;7.07;;;3.70;99.90;;;;;;4866709;29;20442;-81
2022/02/28 00:13:18;;;;;;;11.10;7.37;;;3.60;99.90;;;;;;4865056;29;20369;-81
2022/02/28 00:16:03;;;;;;;7.07;5.93;;;3.60;99.90;;;;;;4865071;29;20369;-80
2022/02/28 00:18:47;;;;;;;11.20;7.00;;;3.60;99.90;;;;;;4865275;29;20432;-79
2022/02/28 00:21:31;;;;;;;8.20;7.40;;;3.60;99.90;;;;;;4865839;29;20394;-81
2022/02/28 00:24:15;;;;;;;8.57;6.87;;;3.60;99.90;;;;;;4866152;29;20357;-81
2022/02/28 00:27:00;;;;;;;7.43;6.53;;;3.60;99.90;;;;;;4865902;29;20412;-81
2022/02/28 00:29:47;;;;;;;7.67;5.97;;;3.50;99.90;;;;;;4865903;29;20828;-81
2022/02/28 00:32:32;;;;;;;11.03;7.63;;;3.60;99.90;;;;;;4866738;29;20399;-81
2022/02/28 00:35:16;;;;;;;10.40;7.20;;;3.50;99.90;;;;;;4865930;29;20369;-80
2022/02/28 00:38:02;;;;;;;12.33;6.83;;;3.50;99.90;;;;;;4866400;29;20428;-81
2022/02/28 00:40:46;;;;;;;14.60;7.37;;;3.50;99.90;;;;;;4852052;29;20422;-81
2022/02/28 00:43:31;;;;;;;13.97;7.47;;;3.50;99.90;;;;;;4866053;29;20442;-81
2022/02/28 00:46:16;;;;;;;12.60;7.50;;;3.40;99.90;;;;;;4865403;29;20434;-81
2022/02/28 00:49:00;;;;;;;9.60;7.30;;;3.30;99.90;;;;;;4866300;29;20451;-81
2022/02/28 00:51:44;;;;;;;10.67;7.83;;;3.50;99.90;;;;;;4865550;29;20419;-81
2022/02/28 00:54:28;;;;;;;12.03;6.83;;;3.40;99.90;;;;;;4865485;29;20801;-81
2022/02/28 00:57:13;;;;;;;8.90;7.60;;;3.40;99.90;;;;;;4846138;29;20591;-81
2022/02/28 00:59:58;;;;;;;11.20;6.00;;;3.40;99.90;;;;;;4860105;29;20399;-81
2022/02/28 01:02:43;;;;;;;9.50;6.73;;;3.40;99.90;;;;;;4872690;29;20430;-82
2022/02/28 01:05:27;;;;;;;12.23;9.30;;;3.30;99.90;;;;;;4847663;29;20449;-82
2022/02/28 01:08:12;;;;;;;10.80;6.30;;;3.30;99.90;;;;;;4848105;29;20374;-82
2022/02/28 01:10:57;;;;;;;11.10;6.27;;;3.30;99.90;;;;;;4848437;29;20909;-82
2022/02/28 01:13:41;;;;;;;9.93;8.80;;;3.40;99.90;;;;;;4872157;29;20403;-81
2022/02/28 01:16:26;;;;;;;10.27;7.17;;;3.40;99.90;;;;;;4847706;29;20382;-82
2022/02/28 01:19:11;;;;;;;10.00;7.20;;;3.30;99.90;;;;;;4847343;29;20929;-81
2022/02/28 01:21:55;;;;;;;9.27;7.20;;;3.40;99.90;;;;;;4847408;29;20391;-82
2022/02/28 01:24:40;;;;;;;11.90;7.03;;;3.20;99.90;;;;;;4847302;29;20732;-81
2022/02/28 01:27:25;;;;;;;10.67;7.00;;;3.20;99.90;;;;;;4847110;29;20392;-81
2022/02/28 01:30:11;;;;;;;8.27;6.33;;;3.10;99.90;;;;;;4847746;29;20499;-82
2022/02/28 01:32:55;;;;;;;8.27;6.70;;;3.20;99.90;;;;;;4847405;29;20970;-81
2022/02/28 01:35:40;;;;;;;14.03;8.03;;;3.10;99.90;;;;;;4848004;29;20395;-81
2022/02/28 01:38:25;;;;;;;11.87;7.10;;;3.20;99.90;;;;;;4887840;29;20444;-80
2022/02/28 01:41:10;;;;;;;12.17;7.87;;;3.10;99.90;;;;;;4851318;29;20400;-81
2022/02/28 01:43:54;;;;;;;11.43;7.40;;;2.90;99.90;;;;;;4851297;29;20400;-81
2022/02/28 01:46:39;;;;;;;6.60;5.90;;;2.90;99.90;;;;;;4863206;29;20472;-81
2022/02/28 01:49:23;;;;;;;12.33;7.97;;;3.00;99.90;;;;;;4853380;29;20851;-81
2022/02/28 01:52:08;;;;;;;7.60;5.80;;;3.00;99.90;;;;;;4855358;29;20392;-81
2022/02/28 01:54:53;;;;;;;10.30;8.00;;;2.90;99.90;;;;;;4854359;29;20437;-81
2022/02/28 01:57:40;;;;;;;10.43;7.57;;;2.90;99.90;;;;;;4869017;29;20521;-81
2022/02/28 02:00:29;;;;;;;7.40;5.80;;;2.90;99.90;;;;;;4872690;29;20376;-81
2022/02/28 02:03:13;;;;;;;10.60;8.47;;;2.90;99.90;;;;;;4872796;29;20391;-81
2022/02/28 02:05:59;;;;;;;12.70;6.90;;;2.90;99.90;;;;;;4875760;29;20412;-80
2022/02/28 02:08:44;;;;;;;11.37;7.63;;;2.90;99.90;;;;;;4875958;29;20401;-81
2022/02/28 02:11:29;;;;;;;7.27;5.83;;;2.90;99.90;;;;;;4887308;29;20403;-81
2022/02/28 02:14:13;;;;;;;9.83;7.13;;;2.80;99.90;;;;;;4875664;29;20835;-81
2022/02/28 02:16:59;;;;;;;12.77;8.07;;;2.70;99.90;;;;;;4873816;29;20990;-80
2022/02/28 02:19:46;;;;;;;8.87;7.00;;;2.70;99.90;;;;;;4876352;29;20466;-81
2022/02/28 02:22:32;;;;;;;9.93;7.80;;;2.80;99.90;;;;;;4877804;29;20389;-81
2022/02/28 02:25:16;;;;;;;10.13;6.73;;;2.70;99.90;;;;;;4862738;29;20451;-81
2022/02/28 02:28:01;;;;;;;7.77;5.97;;;2.70;99.90;;;;;;4878635;29;20438;-79
2022/02/28 02:30:48;;;;;;;14.67;6.30;;;2.80;99.90;;;;;;4875423;29;20523;-81
2022/02/28 02:33:33;;;;;;;6.87;5.40;;;2.80;99.90;;;;;;4874180;29;20434;-82
2022/02/28 02:36:18;;;;;;;8.53;6.13;;;2.70;99.90;;;;;;4874760;29;20373;-81
2022/02/28 02:39:04;;;;;;;9.03;6.70;;;2.70;99.90;;;;;;4873214;29;20373;-81
2022/02/28 02:41:48;;;;;;;9.57;7.30;;;2.70;99.90;;;;;;4869450;29;20392;-81
2022/02/28 02:44:34;;;;;;;7.03;6.33;;;2.70;99.90;;;;;;4853016;29;20905;-81
2022/02/28 02:47:19;;;;;;;6.37;5.77;;;2.60;99.90;;;;;;4867256;29;20399;-81
2022/02/28 02:50:05;;;;;;;9.50;5.60;;;2.60;99.90;;;;;;4866778;29;20530;-81
2022/02/28 02:52:49;;;;;;;7.77;5.50;;;2.60;99.90;;;;;;4852997;29;20533;-80
2022/02/28 02:55:34;;;;;;;7.43;5.50;;;2.60;99.90;;;;;;4867201;29;20495;-80
2022/02/28 02:58:19;;;;;;;6.47;5.17;;;2.50;99.90;;;;;;4860491;29;20426;-79
2022/02/28 03:01:04;;;;;;;10.40;6.13;;;2.60;99.90;;;;;;4843027;29;20419;-81
2022/02/28 03:03:48;;;;;;;5.87;5.20;;;2.50;99.90;;;;;;4830923;29;20393;-81
2022/02/28 03:06:34;;;;;;;8.60;6.10;;;2.50;99.90;;;;;;4854913;29;20397;-81
2022/02/28 03:09:38;;;;;;;7.10;6.40;;;2.50;99.90;;;;;;4830826;29;20388;-81
2022/02/28 03:12:23;;;;;;;9.97;5.83;;;2.50;99.90;;;;;;4830373;29;20853;-80
2022/02/28 03:15:08;;;;;;;12.53;7.23;;;2.40;99.90;;;;;;4830480;29;20376;-81
2022/02/28 03:17:52;;;;;;;9.60;7.00;;;2.40;99.90;;;;;;4829963;29;20450;-80
2022/02/28 03:20:37;;;;;;;15.10;7.80;;;2.40;99.90;;;;;;4830306;29;20388;-81
2022/02/28 03:23:21;;;;;;;13.33;6.87;;;2.30;99.90;;;;;;4830370;29;20431;-81
2022/02/28 03:26:07;;;;;;;20.07;7.67;;;2.40;99.90;;;;;;4829851;29;20386;-81
2022/02/28 03:28:51;;;;;;;18.37;9.30;;;2.40;99.90;;;;;;4830034;29;20375;-81
2022/02/28 03:31:37;;;;;;;9.20;6.20;;;2.40;99.90;;;;;;4854574;29;20421;-81
2022/02/28 03:34:21;;;;;;;11.13;7.20;;;2.40;99.90;;;;;;4830246;29;20370;-81
2022/02/28 03:37:06;;;;;;;6.60;5.73;;;2.40;99.90;;;;;;4830366;29;20444;-81
2022/02/28 03:39:50;;;;;;;10.17;5.47;;;2.40;99.90;;;;;;4829987;29;20889;-80
2022/02/28 03:42:34;;;;;;;10.30;6.20;;;2.30;99.90;;;;;;4830000;29;20389;-80
2022/02/28 03:45:20;;;;;;;11.23;6.03;;;2.40;99.90;;;;;;4828725;29;20479;-81
2022/02/28 03:48:05;;;;;;;11.10;7.70;;;2.40;99.90;;;;;;4829678;29;20948;-79
2022/02/28 03:50:49;;;;;;;10.10;5.87;;;2.40;99.90;;;;;;4829758;29;20395;-81
2022/02/28 03:53:34;;;;;;;8.07;6.03;;;2.40;99.90;;;;;;4829658;29;20393;-80
2022/02/28 03:56:18;;;;;;;13.57;8.10;;;2.40;99.90;;;;;;4839083;29;20584;-81
2022/02/28 03:59:02;;;;;;;10.33;6.23;;;2.30;99.90;;;;;;4866567;29;20370;-81
2022/02/28 04:01:47;;;;;;;11.20;6.07;;;2.30;99.90;;;;;;4865261;29;20446;-81
2022/02/28 04:04:32;;;;;;;12.00;7.70;;;2.30;99.90;;;;;;4865707;29;20395;-80
2022/02/28 04:07:17;;;;;;;8.87;7.20;;;2.30;99.90;;;;;;4851953;29;20370;-80
2022/02/28 04:10:03;;;;;;;7.27;5.90;;;2.30;99.90;;;;;;4865482;29;20420;-81
2022/02/28 04:12:48;;;;;;;9.77;6.20;;;2.30;99.90;;;;;;4865542;29;20405;-80
2022/02/28 04:15:32;;;;;;;11.40;7.20;;;2.30;99.90;;;;;;4865154;29;20397;-80
2022/02/28 04:18:17;;;;;;;13.47;5.80;;;2.30;99.90;;;;;;4865448;29;20860;-80
2022/02/28 04:21:01;;;;;;;7.70;4.80;;;2.20;99.90;;;;;;4864927;29;20399;-81
2022/02/28 04:23:46;;;;;;;10.13;7.20;;;2.20;99.90;;;;;;4864845;29;20395;-81
2022/02/28 04:26:32;;;;;;;10.00;6.33;;;2.20;99.90;;;;;;4865892;29;20394;-81
2022/02/28 04:29:17;;;;;;;9.90;5.70;;;2.10;99.90;;;;;;4865499;29;20845;-80
2022/02/28 04:32:04;;;;;;;10.23;6.63;;;2.10;99.90;;;;;;4865702;29;20731;-79
2022/02/28 04:34:49;;;;;;;10.93;6.30;;;2.10;99.90;;;;;;4851790;29;20366;-81
2022/02/28 04:37:36;;;;;;;12.07;7.50;;;2.00;99.90;;;;;;4865355;29;20550;-80
2022/02/28 04:40:20;;;;;;;12.30;7.13;;;2.10;99.90;;;;;;4838939;29;20569;-81
2022/02/28 04:43:05;;;;;;;7.53;6.80;;;2.10;99.90;;;;;;4865633;29;20381;-81
2022/02/28 04:45:49;;;;;;;13.80;7.73;;;2.10;99.90;;;;;;4875156;29;20487;-81
2022/02/28 04:48:34;;;;;;;10.70;7.47;;;2.10;99.90;;;;;;4864478;29;20474;-81
2022/02/28 04:51:18;;;;;;;10.53;5.60;;;2.00;99.90;;;;;;4865382;29;20387;-80
2022/02/28 04:54:03;;;;;;;8.30;5.93;;;2.00;99.90;;;;;;4865422;29;20738;-80
2022/02/28 04:56:47;;;;;;;17.10;7.83;;;2.00;99.90;;;;;;4870829;29;20462;-80
2022/02/28 04:59:33;;;;;;;10.63;5.30;;;2.00;99.90;;;;;;4846995;29;20415;-80
2022/02/28 05:02:17;;;;;;;7.47;6.77;;;2.00;99.90;;;;;;4847102;29;20388;-80
2022/02/28 05:05:03;;;;;;;12.10;7.40;;;2.00;99.90;;;;;;4847445;29;20389;-81
2022/02/28 05:07:47;;;;;;;9.07;6.87;;;1.90;99.90;;;;;;4859554;29;20374;-83
2022/02/28 05:10:32;;;;;;;9.93;5.80;;;1.90;99.90;;;;;;4847361;29;20868;-82
2022/02/28 05:13:16;;;;;;;8.37;6.03;;;2.00;99.90;;;;;;4850161;29;20426;-82
2022/02/28 05:16:01;;;;;;;6.77;6.17;;;2.00;99.90;;;;;;4851867;29;20933;-80
2022/02/28 05:18:45;;;;;;;8.10;6.70;;;1.90;99.90;;;;;;4852132;29;20917;-81
2022/02/28 05:21:30;;;;;;;10.40;7.43;;;1.90;99.90;;;;;;4860151;29;20400;-79
2022/02/28 05:24:15;;;;;;;14.60;6.10;;;1.90;99.90;;;;;;4862470;29;20468;-78
2022/02/28 05:26:59;;;;;;;7.87;6.13;;;1.90;99.90;;;;;;4861736;29;20449;-80
2022/02/28 05:29:44;;;;;;;11.97;6.13;;;2.00;99.90;;;;;;4862249;29;20396;-82
2022/02/28 05:32:28;;;;;;;15.90;7.13;;;1.80;99.90;;;;;;4854045;29;20902;-81
2022/02/28 05:35:13;;;;;;;13.10;6.50;;;1.80;99.90;;;;;;4852727;29;20483;-82
2022/02/28 05:37:57;;;;;;;6.50;5.83;;;1.90;99.90;;;;;;4852228;29;20451;-81
2022/02/28 05:40:42;;;;;;;18.40;7.57;;;1.80;99.90;;;;;;4851290;29;20403;-81
2022/02/28 05:43:27;;;;;;;10.20;7.10;;;1.80;99.90;;;;;;4852075;29;20391;-79
2022/02/28 05:46:12;;;;;;;7.47;5.70;;;1.60;99.90;;;;;;4852979;29;20469;-81
2022/02/28 05:49:17;;;;;;;5.77;5.27;;;1.60;99.90;;;;;;4856295;29;20456;-81
2022/02/28 05:52:02;;;;;;;10.10;6.27;;;1.70;99.90;;;;;;4849024;29;20423;-81
2022/02/28 05:54:47;;;;;;;9.03;6.10;;;1.80;99.90;;;;;;4848447;29;20549;-79
2022/02/28 05:57:36;;;;;;;11.23;8.13;;;1.80;99.90;;;;;;4832949;29;20493;-80
2022/02/28 06:00:21;;;;;;;9.13;7.20;;;1.80;99.90;;;;;;4857554;29;20378;-80
2022/02/28 06:03:06;;;;;;;20.93;10.97;;;1.80;99.90;;;;;;4859813;29;20445;-80
2022/02/28 06:05:50;;;;;;;16.00;9.60;;;1.70;99.90;;;;;;4862446;29;20795;-80
2022/02/28 06:08:35;;;;;;;9.03;6.40;;;1.80;99.90;;;;;;4849205;29;20884;-80
2022/02/28 06:11:19;;;;;;;10.80;7.77;;;1.80;99.90;;;;;;4848815;29;20447;-80
2022/02/28 06:14:04;;;;;;;15.80;8.20;;;1.80;99.90;;;;;;4835632;29;20762;-81
2022/02/28 06:16:48;;;;;;;9.60;8.50;;;1.80;99.90;;;;;;4849934;29;20811;-80
2022/02/28 06:19:33;;;;;;;16.83;7.13;;;1.70;99.90;;;;;;4848620;29;20365;-81
2022/02/28 06:22:19;;;;;;;13.77;7.53;;;1.70;99.90;;;;;;4847879;29;20486;-81
2022/02/28 06:25:04;;;;;;;11.73;9.00;;;1.60;99.90;;;;;;4846310;29;20488;-81
2022/02/28 06:27:52;;;;;;;17.77;9.17;;;1.70;99.90;;;;;;4858227;29;20424;-81
2022/02/28 06:30:36;;;;;;;17.40;10.43;;;1.80;99.90;;;;;;4847344;29;20428;-83
2022/02/28 06:33:20;;;;;;;13.33;7.53;;;1.80;99.90;;;;;;4834038;29;20399;-80
2022/02/28 06:36:05;;;;;;;13.73;7.43;;;1.80;99.90;;;;;;4844186;29;20393;-80
2022/02/28 06:38:49;;;;;;;8.40;6.50;;;1.90;99.90;;;;;;4844037;29;20440;-81
2022/02/28 06:41:34;;;;;;;6.37;5.40;;;1.90;99.90;;;;;;4845716;29;20516;-79
2022/02/28 06:44:19;;;;;;;12.27;7.73;;;1.80;99.90;;;;;;4847933;29;20487;-81
2022/02/28 06:47:04;;;;;;;16.33;9.20;;;1.90;99.90;;;;;;4846844;29;20447;-80
2022/02/28 06:49:48;;;;;;;9.60;7.43;;;2.00;99.90;;;;;;4847102;29;20424;-80
2022/02/28 06:52:33;;;;;;;17.00;10.17;;;1.90;99.90;;;;;;4846824;29;20409;-81
2022/02/28 06:55:17;;;;;;;21.20;10.13;;;2.00;99.90;;;;;;4843032;29;20434;-79
2022/02/28 06:58:02;;;;;;;11.23;7.47;;;2.00;99.90;;;;;;4849795;29;20567;-80
2022/02/28 07:00:49;;;;;;;10.77;8.47;;;2.00;99.90;;;;;;4861489;29;20477;-81
2022/02/28 07:03:33;;;;;;;9.90;7.03;;;1.90;99.90;;;;;;4857313;29;20401;-80
2022/02/28 07:06:20;;;;;;;11.90;9.33;;;2.00;99.90;;;;;;4865656;29;20422;-81
2022/02/28 07:09:07;;;;;;;9.77;8.07;;;2.00;99.90;;;;;;4843465;29;20436;-81
2022/02/28 07:11:52;;;;;;;11.63;7.10;;;2.00;99.90;;;;;;4844412;29;20485;-80
2022/02/28 07:14:37;;;;;;;8.80;7.90;;;2.00;99.90;;;;;;4842036;29;20426;-81
2022/02/28 07:17:21;;;;;;;10.27;5.63;;;2.00;99.90;;;;;;4843557;29;20526;-80
2022/02/28 07:20:07;;;;;;;8.90;7.17;;;2.00;99.90;;;;;;4843657;29;20426;-80
2022/02/28 07:22:51;;;;;;;15.30;8.70;;;2.00;99.90;;;;;;4843404;29;20914;-81
2022/02/28 07:25:36;;;;;;;10.32;7.25;;;2.10;99.90;;;;;;4841830;29;20343;-81
2022/02/28 07:28:20;;;;;;;11.83;8.30;;;2.30;99.90;;;;;;4841591;29;20236;-81
2022/02/28 07:31:05;;;;;;;11.50;8.60;;;2.30;99.90;;;;;;4830408;29;20447;-80
2022/02/28 07:33:49;;;;;;;16.17;9.43;;;2.50;99.90;;;;;;4844658;29;20939;-81
2022/02/28 07:36:34;;;;;;;10.77;6.93;;;2.50;99.90;;;;;;4844221;29;20474;-80
2022/02/28 07:39:19;;;;;;;11.40;8.47;;;2.50;99.90;;;;;;4848831;29;20430;-80
2022/02/28 07:42:04;;;;;;;10.83;8.60;;;2.60;99.90;;;;;;4862447;29;20806;-80
2022/02/28 07:44:48;;;;;;;9.93;6.87;;;2.70;99.90;;;;;;4864474;29;20406;-79
2022/02/28 07:47:33;;;;;;;14.27;9.23;;;2.70;99.90;;;;;;4864203;29;20416;-80
2022/02/28 07:50:18;;;;;;;11.43;7.93;;;2.80;99.90;;;;;;4864535;29;20385;-80
2022/02/28 07:53:03;;;;;;;12.33;7.20;;;2.90;99.90;;;;;;4860567;29;20443;-80
2022/02/28 07:55:47;;;;;;;15.00;9.40;;;2.90;99.90;;;;;;4862954;29;20866;-80
2022/02/28 07:58:32;;;;;;;14.00;8.37;;;2.80;99.90;;;;;;4864833;29;20452;-80
2022/02/28 08:01:17;;;;;;;12.50;8.13;;;2.90;99.90;;;;;;4866008;29;20439;-81
2022/02/28 08:04:01;;;;;;;19.33;9.30;;;3.10;99.90;;;;;;4868307;29;20476;-82
2022/02/28 08:06:46;;;;;;;9.43;7.80;;;3.20;99.90;;;;;;4866226;29;20417;-82
2022/02/28 08:09:31;;;;;;;10.50;7.83;;;3.30;99.90;;;;;;4868241;29;20458;-82
2022/02/28 08:12:15;;;;;;;13.90;8.37;;;3.40;99.90;;;;;;4866054;29;20466;-81
2022/02/28 08:15:00;;;;;;;10.10;7.97;;;3.30;99.90;;;;;;4865010;29;20449;-81
2022/02/28 08:17:45;;;;;;;7.17;6.47;;;3.60;99.90;;;;;;4864761;29;20462;-82
2022/02/28 08:20:29;;;;;;;12.53;9.33;;;3.70;99.90;;;;;;4865190;29;20445;-82
2022/02/28 08:23:14;;;;;;;19.10;8.90;;;3.70;99.90;;;;;;4863639;29;21535;-82
2022/02/28 08:25:59;;;;;;;12.00;10.47;;;3.70;99.90;;;;;;4868638;29;20423;-82
2022/02/28 08:28:44;;;;;;;10.27;8.80;;;3.80;99.90;;;;;;4865790;29;20434;-83
2022/02/28 08:31:29;;;;;;;16.70;7.90;;;4.00;99.90;;;;;;4864116;29;20538;-82
2022/02/28 08:34:13;;;;;;;15.20;7.23;;;4.20;99.90;;;;;;4867109;29;20467;-82
2022/02/28 08:36:58;;;;;;;18.27;9.47;;;4.20;99.90;;;;;;4870295;29;20466;-81
2022/02/28 08:39:42;;;;;;;13.70;7.70;;;4.60;99.90;;;;;;4866197;29;20444;-82
2022/02/28 08:42:27;;;;;;;14.63;8.53;;;5.00;99.90;;;;;;4866932;29;20463;-81
2022/02/28 08:45:11;;;;;;;13.03;7.87;;;5.40;99.90;;;;;;4847113;29;20552;-82
2022/02/28 08:47:56;;;;;;;15.40;8.43;;;5.80;99.90;;;;;;4864565;29;20483;-82
2022/02/28 08:50:43;;;;;;;11.30;7.70;;;5.90;99.90;;;;;;4851927;29;20470;-82
2022/02/28 08:53:27;;;;;;;13.50;6.90;;;6.50;99.90;;;;;;4864950;29;20528;-80
2022/02/28 08:56:12;;;;;;;14.77;9.17;;;7.00;99.90;;;;;;4870468;29;20458;-82
2022/02/28 08:58:56;;;;;;;9.43;8.00;;;7.50;99.90;;;;;;4876494;29;20502;-80
2022/02/28 09:01:41;;;;;;;14.93;9.20;;;7.80;99.90;;;;;;4876367;29;20479;-80
2022/02/28 09:04:25;;;;;;;15.47;9.13;;;8.20;99.90;;;;;;4864070;29;20956;-81
2022/02/28 09:07:10;;;;;;;18.50;8.27;;;8.90;99.90;;;;;;4870551;29;21019;-81
2022/02/28 09:09:55;;;;;;;15.83;9.40;;;9.30;99.90;;;;;;4863200;29;20515;-80
2022/02/28 09:12:40;;;;;;;14.87;9.03;;;9.10;99.90;;;;;;4870700;29;20461;-81
2022/02/28 09:15:24;;;;;;;16.27;9.33;;;9.90;99.90;;;;;;4868116;29;20445;-82
2022/02/28 09:18:09;;;;;;;15.97;8.93;;;10.50;99.90;;;;;;4860250;29;20435;-81
2022/02/28 09:20:54;;;;;;;14.77;9.10;;;10.20;99.90;;;;;;4870573;29;20418;-82
2022/02/28 09:23:38;;;;;;;13.43;8.70;;;9.60;99.90;;;;;;4867675;29;20407;-81
2022/02/28 09:26:23;;;;;;;18.97;11.47;;;10.20;99.90;;;;;;4858018;29;20410;-82
2022/02/28 09:29:08;;;;;;;15.60;9.13;;;10.30;99.90;;;;;;4875798;29;20602;-82
2022/02/28 09:31:52;;;;;;;13.07;9.70;;;10.90;99.90;;;;;;4876656;29;20513;-82
2022/02/28 09:34:37;;;;;;;10.37;8.10;;;10.90;99.90;;;;;;4879307;29;20492;-83
2022/02/28 09:37:22;;;;;;;14.27;9.10;;;11.40;99.90;;;;;;4887141;29;20458;-82
2022/02/28 09:40:07;;;;;;;12.73;9.30;;;12.20;99.90;;;;;;4885080;29;20410;-82
2022/02/28 09:42:55;;;;;;;12.10;9.57;;;12.40;98.70;;;;;;4894084;29;20462;-82
2022/02/28 09:45:40;;;;;;;11.43;9.97;;;11.70;96.90;;;;;;4888155;29;20971;-82
2022/02/28 09:48:24;;;;;;;17.53;11.10;;;12.60;98.60;;;;;;4883466;29;20999;-82
2022/02/28 09:51:09;;;;;;;11.70;9.33;;;13.20;96.70;;;;;;4869700;29;20595;-82
2022/02/28 09:53:53;;;;;;;11.30;9.50;;;13.80;94.10;;;;;;4858079;29;20771;-82
2022/02/28 09:56:38;;;;;;;22.03;10.50;;;13.70;94.80;;;;;;4871114;29;20813;-81
2022/02/28 09:59:23;;;;;;;14.40;9.50;;;14.70;93.10;;;;;;4866106;29;20473;-83
2022/02/28 10:02:09;;;;;;;13.13;9.77;;;15.90;90.50;;;;;;4870101;29;20430;-82
2022/02/28 10:04:53;;;;;;;12.67;8.80;;;17.00;82.40;;;;;;4875392;29;20826;-82
2022/02/28 10:07:51;;;;;;;13.60;10.27;;;17.30;81.60;;;;;;4867734;29;20937;-81
2022/02/28 10:10:36;;;;;;;16.07;8.83;;;18.30;77.10;;;;;;4855931;29;20425;-83
2022/02/28 10:13:28;;;;;;;12.17;9.83;;;18.40;76.40;;;;;;4870191;29;20505;-79
2022/02/28 10:16:17;;;;;;;11.43;9.37;;;18.20;75.70;;;;;;4880990;29;20422;-81
2022/02/28 10:19:05;;;;;;;13.63;10.03;;;17.80;69.40;;;;;;4875724;29;20452;-81
2022/02/28 10:21:52;;;;;;;10.67;8.67;;;13.90;72.60;;;;;;4874499;29;20461;-82
2022/02/28 10:24:39;;;;;;;11.83;9.07;;;14.70;75.30;;;;;;4881225;29;20431;-81
2022/02/28 10:27:24;;;;;;;10.87;9.10;;;15.00;75.70;;;;;;4878622;29;20434;-81
2022/02/28 10:30:11;;;;;;;14.33;9.50;;;13.90;76.10;;;;;;4888362;29;20422;-82
2022/02/28 10:32:56;;;;;;;15.63;10.77;;;14.20;76.60;;;;;;4856077;29;20448;-81
2022/02/28 10:38:50;;;;;;;12.40;9.80;;;14.70;77.30;;;;;;4888800;29;20537;-79
2022/02/28 10:41:38;;;;;;;13.60;9.13;;;14.90;75.50;;;;;;4882660;29;20491;-80
2022/02/28 10:44:23;;;;;;;10.00;8.40;;;14.00;74.00;;;;;;4871804;29;20430;-80
2022/02/28 10:47:10;;;;;;;11.03;9.23;;;14.40;76.00;;;;;;4871872;29;20449;-79
2022/02/28 10:49:58;;;;;;;12.03;9.57;;;12.90;76.60;;;;;;4875226;29;20452;-79
2022/02/28 10:52:58;;;;;;;13.40;10.13;;;13.10;74.40;;;;;;4877183;29;20406;-77
2022/02/28 10:55:45;;;;;;;9.90;8.90;;;12.90;77.20;;;;;;4875321;29;20542;-81
2022/02/28 10:58:30;;;;;;;12.20;8.83;;;14.00;81.90;;;;;;4881750;29;20470;-80
2022/02/28 11:01:14;;;;;;;14.07;10.10;;;15.30;70.30;;;;;;4883803;29;20402;-79
2022/02/28 11:03:59;;;;;;;12.77;10.00;;;16.00;66.60;;;;;;4878795;29;20435;-81
2022/02/28 11:06:47;;;;;;;11.63;9.90;;;14.00;68.50;;;;;;4880392;29;20501;-78
2022/02/28 11:09:36;;;;;;;9.67;8.67;;;13.10;71.70;;;;;;4873759;29;20543;-80
2022/02/28 11:12:25;;;;;;;13.67;8.77;;;13.70;72.00;;;;;;4866329;29;20503;-79
2022/02/28 11:15:14;;;;;;;10.83;9.40;;;15.60;70.10;;;;;;4881520;29;20462;-82
2022/02/28 11:18:00;;;;;;;12.07;9.80;;;15.80;67.90;;;;;;4879718;29;20825;-80
2022/02/28 11:20:44;;;;;;;12.80;9.13;;;15.80;64.40;;;;;;4881664;29;20413;-82
2022/02/28 11:23:28;;;;;;;10.13;9.17;;;14.00;67.80;;;;;;4883558;29;20465;-81
2022/02/28 11:26:14;;;;;;;12.53;9.10;;;15.60;69.20;;;;;;4882210;29;20436;-80
2022/02/28 11:28:59;;;;;;;12.83;8.90;;;17.10;63.70;;;;;;4817832;29;20416;-81
2022/02/28 11:31:44;;;;;;;11.17;7.97;;;17.50;61.50;;;;;;4819784;29;20493;-80
2022/02/28 11:34:28;;;;;;;11.33;9.10;;;16.40;60.50;;;;;;4835469;29;20789;-80
2022/02/28 11:37:21;;;;;;;10.40;8.67;;;17.80;60.00;;;;;;4832292;29;21134;-80
2022/02/28 11:40:06;;;;;;;10.37;8.13;;;17.50;58.80;;;;;;4821220;29;20439;-79
2022/02/28 11:43:10;;;;;;;13.37;9.90;;;15.00;59.60;;;;;;4841038;29;20429;-80
2022/02/28 11:45:57;;;;;;;10.00;9.00;;;17.00;62.50;;;;;;4826968;29;20469;-79
2022/02/28 11:48:46;;;;;;;10.60;9.10;;;16.70;60.50;;;;;;4818801;29;20546;-80
2022/02/28 11:51:34;;;;;;;11.57;9.90;;;17.00;59.80;;;;;;4824143;29;20421;-81
2022/02/28 11:54:26;;;;;;;14.50;11.70;;;17.70;58.90;;;;;;4815982;29;20502;-80
2022/02/28 11:57:11;;;;;;;10.73;9.07;;;18.50;59.10;;;;;;4817298;29;20507;-81
2022/02/28 11:59:55;;;;;;;10.73;9.00;;;18.60;56.70;;;;;;4850417;29;20454;-80
2022/02/28 12:02:40;;;;;;;11.60;10.00;;;19.00;56.30;;;;;;4876625;29;20414;-79
2022/02/28 12:05:36;;;;;;;14.13;9.17;;;18.00;55.70;;;;;;4879216;29;20438;-83
2022/02/28 12:08:37;;;;;;;9.03;8.13;;;18.20;56.90;;;;;;4864682;29;20454;-81
2022/02/28 12:11:28;;;;;;;9.80;8.23;;;18.70;54.60;;;;;;4870456;29;20450;-79
2022/02/28 12:14:13;;;;;;;9.80;8.70;;;18.30;56.60;;;;;;4871222;29;20419;-82
2022/02/28 12:20:23;;;;;;;13.63;8.57;;;19.00;56.00;;;;;;4867484;29;20411;-80
2022/02/28 12:23:09;;;;;;;10.43;8.93;;;19.30;54.50;;;;;;4853589;29;20410;-80
2022/02/28 12:26:01;;;;;;;10.33;9.30;;;19.80;53.70;;;;;;4873347;29;20411;-79
2022/02/28 12:28:48;;;;;;;12.67;10.50;;;19.30;52.70;;;;;;4874208;29;20454;-81
2022/02/28 12:31:35;;;;;;;9.13;8.03;;;18.50;54.70;;;;;;4856909;29;20426;-81
2022/02/28 12:34:33;;;;;;;10.33;9.23;;;19.50;51.00;;;;;;4879455;29;20942;-80
2022/02/28 12:37:21;;;;;;;9.33;7.90;;;18.10;51.80;;;;;;4853586;29;20489;-80
2022/02/28 12:40:06;;;;;;;10.67;8.63;;;16.70;51.60;;;;;;4873132;29;20515;-78
2022/02/28 12:42:55;;;;;;;10.23;9.13;;;17.20;55.70;;;;;;4869458;29;20426;-79
2022/02/28 12:45:40;;;;;;;9.93;8.83;;;18.10;56.30;;;;;;4867571;29;20454;-80
2022/02/28 12:48:26;;;;;;;11.17;9.03;;;20.00;53.40;;;;;;4857124;29;20454;-81
2022/02/28 12:51:13;;;;;;;11.00;9.87;;;18.50;52.90;;;;;;4864174;29;20429;-79
2022/02/28 12:54:05;;;;;;;11.83;8.93;;;18.80;54.60;;;;;;4859891;29;20414;-80
2022/02/28 12:56:55;;;;;;;11.60;8.73;;;18.30;51.40;;;;;;4863094;29;20485;-80
2022/02/28 12:59:45;;;;;;;10.10;9.03;;;18.20;55.70;;;;;;4860532;29;20799;-80
2022/02/28 13:02:33;;;;;;;8.17;7.57;;;18.00;55.40;;;;;;4848201;29;20442;-79
2022/02/28 13:05:20;;;;;;;12.50;8.53;;;20.30;51.80;;;;;;4855711;29;20418;-80
2022/02/28 13:08:04;;;;;;;8.10;7.33;;;17.70;48.90;;;;;;4875025;29;20565;-82
2022/02/28 13:11:10;;;;;;;10.70;8.27;;;17.10;49.90;;;;;;4862352;29;20421;-82
2022/02/28 13:13:58;;;;;;;8.43;7.70;;;18.20;49.00;;;;;;4854530;29;20410;-79
2022/02/28 13:16:46;;;;;;;9.13;8.20;;;19.30;51.30;;;;;;4869662;29;20426;-81
2022/02/28 13:19:32;;;;;;;8.90;7.40;;;19.40;48.00;;;;;;4846009;29;20426;-79
2022/02/28 13:22:22;;;;;;;8.77;7.93;;;20.30;50.40;;;;;;4874015;29;20442;-81
2022/02/28 13:25:07;;;;;;;8.50;7.70;;;21.60;48.60;;;;;;4863569;29;20442;-80
2022/02/28 13:27:51;;;;;;;10.23;9.20;;;20.60;48.60;;;;;;4861810;29;20422;-80
2022/02/28 13:30:37;;;;;;;10.43;8.20;;;21.30;49.00;;;;;;4871669;29;20465;-79
2022/02/28 13:33:26;;;;;;;7.50;6.90;;;20.70;49.40;;;;;;4870973;29;20524;-79
2022/02/28 13:36:14;;;;;;;7.63;6.87;;;21.80;47.60;;;;;;4873318;29;20467;-82
2022/02/28 13:38:59;;;;;;;10.03;7.90;;;22.70;43.60;;;;;;4848900;29;20467;-81
2022/02/28 13:41:45;;;;;;;7.57;6.77;;;18.10;44.20;;;;;;4867552;29;20429;-81
2022/02/28 13:44:44;;;;;;;7.87;7.00;;;19.40;46.80;;;;;;4869962;29;20483;-82
2022/02/28 13:47:38;;;;;;;8.13;6.40;;;18.00;45.80;;;;;;4858632;29;20469;-81
2022/02/28 13:50:23;;;;;;;7.97;7.37;;;19.40;46.50;;;;;;4868866;29;20429;-80
2022/02/28 13:53:11;;;;;;;9.17;6.70;;;17.80;45.30;;;;;;4875017;29;20409;-80
2022/02/28 13:55:55;;;;;;;10.03;7.03;;;19.40;45.70;;;;;;4860959;29;20503;-82
2022/02/28 13:58:42;;;;;;;8.10;7.37;;;20.10;45.30;;;;;;4854786;29;20464;-80
2022/02/28 14:01:27;;;;;;;6.87;6.17;;;18.80;45.60;;;;;;4867192;29;20430;-83
2022/02/28 14:04:11;;;;;;;6.20;5.63;;;17.90;46.00;;;;;;4862689;29;20483;-81
2022/02/28 14:06:58;;;;;;;9.97;6.40;;;16.20;45.70;;;;;;4875071;29;20425;-79
2022/02/28 14:09:51;;;;;;;8.13;6.90;;;17.10;45.70;;;;;;4880707;29;20498;-79
2022/02/28 14:12:38;;;;;;;10.03;6.87;;;15.70;47.70;;;;;;4858839;29;20572;-79
2022/02/28 14:15:31;;;;;;;7.00;6.30;;;17.20;48.80;;;;;;4875884;29;20479;-79
2022/02/28 14:18:15;;;;;;;7.83;6.50;;;16.80;48.70;;;;;;4839005;29;21043;-80
2022/02/28 14:21:07;;;;;;;8.77;6.53;;;19.00;47.40;;;;;;4876161;29;20479;-81
2022/02/28 14:23:52;;;;;;;9.07;8.17;;;20.50;46.00;;;;;;4872485;29;20502;-80
2022/02/28 14:26:39;;;;;;;8.00;7.20;;;20.50;44.50;;;;;;4853360;29;20451;-81
2022/02/28 14:29:25;;;;;;;8.00;7.10;;;18.20;43.80;;;;;;4843923;29;20431;-78